Fuding, China
Current Conditions -  °F | °C
As of 8:00 PM on Tuesday 21 Oct 2014 (Local Time) from ZSFZ Reporting Station
Clear Clear  
Wind Chill: 75°   Ceiling: Unl
Heat Index: 75°   Visibility: 4mi
Dew Point: 72°   Wind: 2mph
Humidity: 89%   Direction: NA
Pressure: 29.94"   Gusts: NA
Location:  27.33°N, 120.2°E
Report Text: ZSFZ 211200Z VRB01MPS 7000 NSC 24/22 Q1014 NOSIG
Loading
Personal Weather Stations






























Interactive Weather Map
Tropical Storm Tracking
New forecast layout! Learn more

10-Day Weather Forecast

Advertisements
Track Severe Weather on mobile